John Paul K — PBHY — position and weather

sailwx.info

Track history (hours):
 
Tides and Currents Weather Stations Pressure Air Temp Water Temp Dewpoint Dewpoint Depression Visibility Wind Speed Wind Dir Waves Ship Positions

John Paul K

Last reported at 2018-May-20 13:54 UTC. Time now 2018-May-20 14:11 UTC.
Position N 50°55' E 001°09'.

Length 90 m; draft 5.6 m.

Type: Cargo ship. MMSI: 245181000.

Date/timePositionNaut miles runAvg speedWind from/ knotsBaromVisibWave heightAir tempDewpointWater temp
2018-May-20 13:54N 50°55' E 001°09'1110.0
2018-May-20 12:47N 51°02' E 001°23'712.3
2018-May-20 12:15N 51°06' E 001°31'313.4
2018-May-20 12:00N 51°08' E 001°35'713.2
2018-May-20 11:30N 51°12' E 001°43'612.8
2018-May-20 11:00N 51°17' E 001°50'612.4
2018-May-20 10:30N 51°22' E 001°55'611.7
2018-May-20 09:57N 51°27' E 002°02'511.0
2018-May-20 09:30N 51°31' E 002°06'510.4
2018-May-20 09:00N 51°36' E 002°11'610.1
2018-May-20 08:25N 51°40' E 002°17'145 9.3
2018-May-19 16:53N 53°31' E 004°51'411.1
2018-May-19 16:30N 53°32' E 004°58'13510.1
2018-May-19 03:04N 53°52' E 008°44'1 9.5
2018-May-19 02:58N 53°51' E 008°46'4 9.1
2018-May-19 02:30N 53°51' E 008°53'4 8.6
2018-May-19 02:00N 53°51' E 008°60'4 8.6
2018-May-19 01:30N 53°53' E 009°07'2 3.0
2018-May-19 00:59N 53°54' E 009°09'2 3.2
2018-May-19 00:31N 53°55' E 009°11'3 6.4
2018-May-19 00:00N 53°57' E 009°14'4 8.0
2018-May-18 23:30N 54°01' E 009°18'7 8.6
2018-May-18 22:44N 54°07' E 009°20'2 8.1
2018-May-18 22:30N 54°09' E 009°21'4 8.2
2018-May-18 22:00N 54°11' E 009°27'4 8.5
2018-May-18 21:30N 54°12' E 009°34'4 7.1
2018-May-18 21:00N 54°15' E 009°37'4 7.4
2018-May-18 20:30N 54°18' E 009°42'4 7.8
2018-May-18 20:00N 54°21' E 009°46'19 4.8
2018-May-18 16:01N 54°29' E 010°16'110.7
2018-May-18 15:56N 54°29' E 010°17'8 9.5
2018-May-18 15:04N 54°33' E 010°29'3 9.7
2018-May-18 14:43N 54°34' E 010°35'3 9.7
2018-May-18 14:21N 54°35' E 010°41'9 9.8
2018-May-18 13:26N 54°36' E 010°56'410.0
2018-May-18 13:00N 54°36' E 011°04'5 9.7
2018-May-18 12:30N 54°35' E 011°12'510.6
2018-May-18 12:00N 54°33' E 011°20'5 9.9
2018-May-18 11:30N 54°31' E 011°28'5 9.5
2018-May-18 11:00N 54°29' E 011°36'23 9.3
2018-May-18 08:29N 54°13' E 012°05'4 7.6
2018-May-18 08:00N 54°10' E 012°07'1 0.2
2018-May-18 04:57N 54°09' E 012°07'0 0.0
2018-May-18 04:27N 54°09' E 012°07'0 0.0
2018-May-18 02:54N 54°09' E 012°07'0 0.0
2018-May-18 02:30N 54°09' E 012°07'0 0.0
2018-May-18 01:51N 54°09' E 012°07'0 0.0
2018-May-18 01:27N 54°09' E 012°07'0 0.0
2018-May-17 23:42N 54°09' E 012°07'0 0.0
2018-May-17 23:30N 54°09' E 012°07'0 0.0
2018-May-17 23:00N 54°09' E 012°07'0 0.0
2018-May-17 22:27N 54°09' E 012°07'0 0.0
2018-May-17 22:00N 54°09' E 012°07'0 0.0
2018-May-17 21:27N 54°09' E 012°07'0 0.0
2018-May-17 21:00N 54°09' E 012°07'0 0.0
2018-May-17 20:21N 54°09' E 012°07'0 0.0
2018-May-17 20:00N 54°09' E 012°07'0 0.0
2018-May-17 19:12N 54°09' E 012°07'0 0.0
2018-May-17 18:57N 54°09' E 012°07'0 0.0
2018-May-17 17:27N 54°09' E 012°07'0 0.0
2018-May-17 17:00N 54°09' E 012°07'0 0.0
2018-May-17 16:30N 54°09' E 012°07'0 0.0
2018-May-17 16:00N 54°09' E 012°07'0 0.0
2018-May-17 15:24N 54°09' E 012°07'0 0.0
2018-May-17 13:47N 54°09' E 012°07'0 0.0
2018-May-17 13:17N 54°09' E 012°07'0 0.0
2018-May-17 12:47N 54°09' E 012°07'0 0.0
2018-May-17 12:29N 54°09' E 012°07'0 0.0
2018-May-17 11:59N 54°09' E 012°07'0 0.0
2018-May-17 11:29N 54°09' E 012°07'0 0.0
2018-May-17 08:59N 54°09' E 012°07'0 0.0
2018-May-17 08:26N 54°09' E 012°07'0 0.0
2018-May-17 07:56N 54°09' E 012°07'0 0.0
2018-May-17 07:23N 54°09' E 012°07'0 0.0
2018-May-17 05:11N 54°09' E 012°07'0 0.1
2018-May-17 05:00N 54°09' E 012°07'1 1.5
2018-May-17 04:30N 54°10' E 012°06'3 6.9
2018-May-17 04:01N 54°13' E 012°04'4 6.6
2018-May-17 03:27N 54°16' E 012°01'3 6.1
2018-May-17 03:00N 54°19' E 012°02'4 7.2
2018-May-17 02:30N 54°22' E 012°05'4 7.5
2018-May-17 02:01N 54°25' E 012°08'4 8.7
2018-May-17 01:31N 54°29' E 012°11'5 8.8
2018-May-17 00:59N 54°33' E 012°14'4 7.7
2018-May-17 00:30N 54°37' E 012°16'4 7.7
2018-May-17 00:00N 54°40' E 012°20'4 8.0
2018-May-16 23:30N 54°43' E 012°24'4 7.8
2018-May-16 23:01N 54°46' E 012°27'8 8.2
2018-May-16 21:59N 54°53' E 012°36'4 8.7
2018-May-16 21:30N 54°57' E 012°38'5 9.2
2018-May-16 21:00N 55°02' E 012°38'4 9.2
2018-May-16 20:31N 55°06' E 012°38'5 9.2
2018-May-16 20:00N 55°11' E 012°38'5 9.3
2018-May-16 19:31N 55°16' E 012°38'5 9.0
2018-May-16 19:00N 55°20' E 012°39'4 8.9
2018-May-16 18:30N 55°25' E 012°40'5 9.0
2018-May-16 18:00N 55°29' E 012°41'5 9.1
2018-May-16 17:30N 55°34' E 012°42'5 9.3
2018-May-16 17:01N 55°38' E 012°42'5 9.2
2018-May-16 16:30N 55°43' E 012°41'5 9.1
2018-May-16 16:00N 55°47' E 012°41'5 9.2
2018-May-16 15:30N 55°52' E 012°39'4 8.6
2018-May-16 15:01N 55°56' E 012°39'4 8.6
2018-May-16 14:31N 55°60' E 012°43'1 1.1
2018-May-16 14:00N 56°00' E 012°43'0 0.0
2018-May-16 13:30N 56°00' E 012°43'0 0.0
2018-May-16 13:00N 56°00' E 012°43'0 0.0
2018-May-16 12:29N 56°00' E 012°43'0 0.0
2018-May-16 11:59N 56°00' E 012°43'0 0.0
2018-May-16 11:29N 56°00' E 012°43'0 0.0
2018-May-16 10:59N 56°00' E 012°43'0 0.0
2018-May-16 10:29N 56°00' E 012°43'0 0.0
2018-May-16 09:59N 56°00' E 012°43'0 0.0
2018-May-16 09:29N 56°00' E 012°43'0 0.0
2018-May-16 08:59N 56°00' E 012°43'0 0.0
2018-May-16 08:29N 56°00' E 012°43'0 0.0
2018-May-16 07:59N 56°00' E 012°43'0 0.0
2018-May-16 07:29N 56°00' E 012°43'0 0.0
2018-May-16 06:59N 56°00' E 012°43'0 0.0
2018-May-16 06:26N 56°00' E 012°43'0 0.0
2018-May-16 05:59N 56°00' E 012°43'0 0.0
2018-May-16 05:29N 56°00' E 012°43'0 0.0
2018-May-16 04:59N 56°00' E 012°43'0 0.0
2018-May-16 04:29N 56°00' E 012°43'0 0.0
2018-May-16 03:59N 56°00' E 012°43'0 0.0
2018-May-16 03:29N 56°00' E 012°43'0 0.0
2018-May-16 02:59N 56°00' E 012°43'0 0.0
2018-May-16 02:29N 56°00' E 012°43'0 0.0
2018-May-16 01:59N 56°00' E 012°43'0 0.0
2018-May-16 01:29N 56°00' E 012°43'0 0.0
2018-May-16 00:59N 56°00' E 012°43'0 0.0
2018-May-16 00:29N 56°00' E 012°43'0 0.0
2018-May-15 23:59N 56°00' E 012°43'0 0.0
2018-May-15 23:29N 56°00' E 012°43'0 0.0
2018-May-15 22:59N 56°00' E 012°43'0 0.0
2018-May-15 22:29N 56°00' E 012°43'0 0.0
2018-May-15 21:59N 56°00' E 012°43'0 0.0
2018-May-15 21:29N 56°00' E 012°43'0 0.0
2018-May-15 20:59N 56°00' E 012°43'0 0.0
2018-May-15 20:29N 56°00' E 012°43'0 0.0
2018-May-15 19:59N 56°00' E 012°43'0 0.0
2018-May-15 19:29N 56°00' E 012°43'0 0.0
2018-May-15 18:59N 56°00' E 012°43'0 0.0
2018-May-15 18:29N 56°00' E 012°43'0 0.0
2018-May-15 17:59N 56°00' E 012°43'0 0.0
2018-May-15 17:29N 56°00' E 012°43'0 0.0
2018-May-15 16:59N 56°00' E 012°43'0 0.0
2018-May-15 16:26N 56°00' E 012°43'0 0.0
2018-May-15 15:59N 56°00' E 012°43'0 0.0
2018-May-15 15:29N 56°00' E 012°43'0 0.0
2018-May-15 14:59N 56°00' E 012°43'0 0.0
2018-May-15 14:29N 56°00' E 012°43'0 0.0
2018-May-15 13:59N 56°00' E 012°43'0 0.0
2018-May-15 13:29N 56°00' E 012°43'0 0.0
2018-May-15 12:59N 56°00' E 012°43'0 0.0
2018-May-15 12:29N 56°00' E 012°43'0 0.0
2018-May-15 11:59N 56°00' E 012°43'0 0.0
2018-May-15 11:29N 56°00' E 012°43'0 0.0
2018-May-15 10:59N 56°00' E 012°43'0 0.0
2018-May-15 10:29N 56°00' E 012°43'0 0.0
2018-May-15 09:59N 56°00' E 012°43'0 0.0
2018-May-15 09:29N 56°00' E 012°43'0 0.0
2018-May-15 08:59N 56°00' E 012°43'0 0.0
2018-May-15 08:29N 56°00' E 012°43'0 0.0
2018-May-15 07:59N 56°00' E 012°43'0 0.0
2018-May-15 07:29N 56°00' E 012°43'0 0.0
2018-May-15 06:58N 56°00' E 012°43'0 0.0
2018-May-15 06:28N 56°00' E 012°43'0 0.0
2018-May-15 05:58N 56°00' E 012°43'0 0.0
2018-May-15 05:28N 56°00' E 012°43'0 0.0
2018-May-15 04:58N 56°00' E 012°43'1 2.8
2018-May-15 04:31N 55°59' E 012°41'5 9.5
2018-May-15 04:01N 56°04' E 012°38'5 9.1
2018-May-15 03:30N 56°07' E 012°32'13 8.4
2018-May-15 01:57N 56°14' E 012°13'5 8.1
2018-May-15 01:17N 56°17' E 012°05'19 8.3
2018-May-14 23:00N 56°35' E 011°55'10 9.4
2018-May-14 21:55N 56°46' E 011°51'4 9.5
2018-May-14 21:27N 56°50' E 011°48'5 9.6
2018-May-14 20:55N 56°54' E 011°45'4 9.8
2018-May-14 20:30N 56°58' E 011°42'5 9.3
2018-May-14 20:01N 57°02' E 011°39'5 9.0
2018-May-14 19:30N 57°07' E 011°37'5 9.3
2018-May-14 19:00N 57°11' E 011°34'4 8.9
2018-May-14 18:31N 57°15' E 011°31'5 9.1
2018-May-14 18:01N 57°20' E 011°29'510.4
2018-May-14 17:30N 57°25' E 011°25'510.4
2018-May-14 17:01N 57°29' E 011°20'510.0
2018-May-14 16:31N 57°32' E 011°14'5 9.7
2018-May-14 16:00N 57°36' E 011°07'5 9.9
2018-May-14 15:31N 57°39' E 011°00'5 9.8
2018-May-14 15:01N 57°43' E 010°54'5 9.4
2018-May-14 14:30N 57°46' E 010°47'4 8.6
2018-May-14 14:01N 57°47' E 010°39'105 9.7
2018-May-14 03:17N 56°59' E 007°47'310.4
2018-May-14 03:00N 56°58' E 007°42'510.1
2018-May-14 02:30N 56°55' E 007°34'510.1
2018-May-14 01:59N 56°52' E 007°26'510.3
2018-May-14 01:31N 56°50' E 007°19'5 9.7
2018-May-14 00:59N 56°47' E 007°11'211 9.2
2018-May-13 01:55N 53°32' E 004°48'410.1
2018-May-13 01:30N 53°29' E 004°45'5 9.9
2018-May-13 01:00N 53°24' E 004°41'5 9.4
2018-May-13 00:30N 53°20' E 004°38'5 9.3
2018-May-13 00:00N 53°16' E 004°35'5 9.3
2018-May-12 23:29N 53°11' E 004°31'4 9.0
2018-May-12 23:00N 53°08' E 004°28'4 8.8
2018-May-12 22:30N 53°04' E 004°25'5 8.9
2018-May-12 22:00N 52°59' E 004°21'4 8.8
2018-May-12 21:30N 52°55' E 004°18'4 8.7
2018-May-12 21:00N 52°52' E 004°15'6 8.6
2018-May-12 20:21N 52°47' E 004°10'3 8.6
2018-May-12 20:01N 52°45' E 004°07'17 8.9
2018-May-12 18:04N 52°32' E 003°47'1 8.4
2018-May-12 17:59N 52°32' E 003°46'4 8.6
2018-May-12 17:29N 52°29' E 003°41'4 8.7
2018-May-12 16:59N 52°25' E 003°36'4 9.2
2018-May-12 16:30N 52°22' E 003°31'5 9.5
2018-May-12 15:59N 52°19' E 003°26'5910.8
2018-May-12 10:32N 51°34' E 002°23'111.2
2018-May-12 10:29N 51°34' E 002°23'511.2
2018-May-12 10:00N 51°29' E 002°17'611.2
2018-May-12 09:30N 51°24' E 002°13'611.0
2018-May-12 09:00N 51°20' E 002°08'511.0
2018-May-12 08:31N 51°15' E 002°04'510.8
2018-May-12 08:01N 51°12' E 001°57'510.6
2018-May-12 07:31N 51°08' E 001°51'510.4
2018-May-12 07:00N 51°04' E 001°45'510.0
2018-May-12 06:30N 51°01' E 001°40'70 8.6
2018-May-11 22:21N 50°19' E 000°11'6 9.4
2018-May-11 21:43N 50°18' E 000°02'5 9.6
2018-May-11 21:11N 50°17' W 000°06'2 9.8
2018-May-11 20:57N 50°16' W 000°10'5 9.9
2018-May-11 20:26N 50°15' W 000°17'711.7
2018-May-11 19:49N 50°13' W 000°28'  
Track history (hours):
 
Tides and Currents Weather Stations Pressure Air Temp Water Temp Dewpoint Dewpoint Depression Visibility Wind Speed Wind Dir Waves Ship Positions

John Paul K

Last reported at 2018-May-20 13:54 UTC. Time now 2018-May-20 14:11 UTC.
Position N 50°55' E 001°09'.

Length 90 m; draft 5.6 m.

Type: Cargo ship. MMSI: 245181000.

Date/timePositionNaut miles runAvg speedWind from/ knotsBaromVisibWave heightAir tempDewpointWater temp
2018-May-20 13:54N 50°55' E 001°09'1110.0
2018-May-20 12:47N 51°02' E 001°23'712.3
2018-May-20 12:15N 51°06' E 001°31'313.4
2018-May-20 12:00N 51°08' E 001°35'713.2
2018-May-20 11:30N 51°12' E 001°43'612.8
2018-May-20 11:00N 51°17' E 001°50'612.4
2018-May-20 10:30N 51°22' E 001°55'611.7
2018-May-20 09:57N 51°27' E 002°02'511.0
2018-May-20 09:30N 51°31' E 002°06'510.4
2018-May-20 09:00N 51°36' E 002°11'610.1
2018-May-20 08:25N 51°40' E 002°17'145 9.3
2018-May-19 16:53N 53°31' E 004°51'411.1
2018-May-19 16:30N 53°32' E 004°58'13510.1
2018-May-19 03:04N 53°52' E 008°44'1 9.5
2018-May-19 02:58N 53°51' E 008°46'4 9.1
2018-May-19 02:30N 53°51' E 008°53'4 8.6
2018-May-19 02:00N 53°51' E 008°60'4 8.6
2018-May-19 01:30N 53°53' E 009°07'2 3.0
2018-May-19 00:59N 53°54' E 009°09'2 3.2
2018-May-19 00:31N 53°55' E 009°11'3 6.4
2018-May-19 00:00N 53°57' E 009°14'4 8.0
2018-May-18 23:30N 54°01' E 009°18'7 8.6
2018-May-18 22:44N 54°07' E 009°20'2 8.1
2018-May-18 22:30N 54°09' E 009°21'4 8.2
2018-May-18 22:00N 54°11' E 009°27'4 8.5
2018-May-18 21:30N 54°12' E 009°34'4 7.1
2018-May-18 21:00N 54°15' E 009°37'4 7.4
2018-May-18 20:30N 54°18' E 009°42'4 7.8
2018-May-18 20:00N 54°21' E 009°46'19 4.8
2018-May-18 16:01N 54°29' E 010°16'110.7
2018-May-18 15:56N 54°29' E 010°17'8 9.5
2018-May-18 15:04N 54°33' E 010°29'3 9.7
2018-May-18 14:43N 54°34' E 010°35'3 9.7
2018-May-18 14:21N 54°35' E 010°41'9 9.8
2018-May-18 13:26N 54°36' E 010°56'410.0
2018-May-18 13:00N 54°36' E 011°04'5 9.7
2018-May-18 12:30N 54°35' E 011°12'510.6
2018-May-18 12:00N 54°33' E 011°20'5 9.9
2018-May-18 11:30N 54°31' E 011°28'5 9.5
2018-May-18 11:00N 54°29' E 011°36'23 9.3
2018-May-18 08:29N 54°13' E 012°05'4 7.6
2018-May-18 08:00N 54°10' E 012°07'1 0.2
2018-May-18 04:57N 54°09' E 012°07'0 0.0
2018-May-18 04:27N 54°09' E 012°07'0 0.0
2018-May-18 02:54N 54°09' E 012°07'0 0.0
2018-May-18 02:30N 54°09' E 012°07'0 0.0
2018-May-18 01:51N 54°09' E 012°07'0 0.0
2018-May-18 01:27N 54°09' E 012°07'0 0.0
2018-May-17 23:42N 54°09' E 012°07'0 0.0
2018-May-17 23:30N 54°09' E 012°07'0 0.0
2018-May-17 23:00N 54°09' E 012°07'0 0.0
2018-May-17 22:27N 54°09' E 012°07'0 0.0
2018-May-17 22:00N 54°09' E 012°07'0 0.0
2018-May-17 21:27N 54°09' E 012°07'0 0.0
2018-May-17 21:00N 54°09' E 012°07'0 0.0
2018-May-17 20:21N 54°09' E 012°07'0 0.0
2018-May-17 20:00N 54°09' E 012°07'0 0.0
2018-May-17 19:12N 54°09' E 012°07'0 0.0
2018-May-17 18:57N 54°09' E 012°07'0 0.0
2018-May-17 17:27N 54°09' E 012°07'0 0.0
2018-May-17 17:00N 54°09' E 012°07'0 0.0
2018-May-17 16:30N 54°09' E 012°07'0 0.0
2018-May-17 16:00N 54°09' E 012°07'0 0.0
2018-May-17 15:24N 54°09' E 012°07'0 0.0
2018-May-17 13:47N 54°09' E 012°07'0 0.0
2018-May-17 13:17N 54°09' E 012°07'0 0.0
2018-May-17 12:47N 54°09' E 012°07'0 0.0
2018-May-17 12:29N 54°09' E 012°07'0 0.0
2018-May-17 11:59N 54°09' E 012°07'0 0.0
2018-May-17 11:29N 54°09' E 012°07'0 0.0
2018-May-17 08:59N 54°09' E 012°07'0 0.0
2018-May-17 08:26N 54°09' E 012°07'0 0.0
2018-May-17 07:56N 54°09' E 012°07'0 0.0
2018-May-17 07:23N 54°09' E 012°07'0 0.0
2018-May-17 05:11N 54°09' E 012°07'0 0.1
2018-May-17 05:00N 54°09' E 012°07'1 1.5
2018-May-17 04:30N 54°10' E 012°06'3 6.9
2018-May-17 04:01N 54°13' E 012°04'4 6.6
2018-May-17 03:27N 54°16' E 012°01'3 6.1
2018-May-17 03:00N 54°19' E 012°02'4 7.2
2018-May-17 02:30N 54°22' E 012°05'4 7.5
2018-May-17 02:01N 54°25' E 012°08'4 8.7
2018-May-17 01:31N 54°29' E 012°11'5 8.8
2018-May-17 00:59N 54°33' E 012°14'4 7.7
2018-May-17 00:30N 54°37' E 012°16'4 7.7
2018-May-17 00:00N 54°40' E 012°20'4 8.0
2018-May-16 23:30N 54°43' E 012°24'4 7.8
2018-May-16 23:01N 54°46' E 012°27'8 8.2
2018-May-16 21:59N 54°53' E 012°36'4 8.7
2018-May-16 21:30N 54°57' E 012°38'5 9.2
2018-May-16 21:00N 55°02' E 012°38'4 9.2
2018-May-16 20:31N 55°06' E 012°38'5 9.2
2018-May-16 20:00N 55°11' E 012°38'5 9.3
2018-May-16 19:31N 55°16' E 012°38'5 9.0
2018-May-16 19:00N 55°20' E 012°39'4 8.9
2018-May-16 18:30N 55°25' E 012°40'5 9.0
2018-May-16 18:00N 55°29' E 012°41'5 9.1
2018-May-16 17:30N 55°34' E 012°42'5 9.3
2018-May-16 17:01N 55°38' E 012°42'5 9.2
2018-May-16 16:30N 55°43' E 012°41'5 9.1
2018-May-16 16:00N 55°47' E 012°41'5 9.2
2018-May-16 15:30N 55°52' E 012°39'4 8.6
2018-May-16 15:01N 55°56' E 012°39'4 8.6
2018-May-16 14:31N 55°60' E 012°43'1 1.1
2018-May-16 14:00N 56°00' E 012°43'0 0.0
2018-May-16 13:30N 56°00' E 012°43'0 0.0
2018-May-16 13:00N 56°00' E 012°43'0 0.0
2018-May-16 12:29N 56°00' E 012°43'0 0.0
2018-May-16 11:59N 56°00' E 012°43'0 0.0
2018-May-16 11:29N 56°00' E 012°43'0 0.0
2018-May-16 10:59N 56°00' E 012°43'0 0.0
2018-May-16 10:29N 56°00' E 012°43'0 0.0
2018-May-16 09:59N 56°00' E 012°43'0 0.0
2018-May-16 09:29N 56°00' E 012°43'0 0.0
2018-May-16 08:59N 56°00' E 012°43'0 0.0
2018-May-16 08:29N 56°00' E 012°43'0 0.0
2018-May-16 07:59N 56°00' E 012°43'0 0.0
2018-May-16 07:29N 56°00' E 012°43'0 0.0
2018-May-16 06:59N 56°00' E 012°43'0 0.0
2018-May-16 06:26N 56°00' E 012°43'0 0.0
2018-May-16 05:59N 56°00' E 012°43'0 0.0
2018-May-16 05:29N 56°00' E 012°43'0 0.0
2018-May-16 04:59N 56°00' E 012°43'0 0.0
2018-May-16 04:29N 56°00' E 012°43'0 0.0
2018-May-16 03:59N 56°00' E 012°43'0 0.0
2018-May-16 03:29N 56°00' E 012°43'0 0.0
2018-May-16 02:59N 56°00' E 012°43'0 0.0
2018-May-16 02:29N 56°00' E 012°43'0 0.0
2018-May-16 01:59N 56°00' E 012°43'0 0.0
2018-May-16 01:29N 56°00' E 012°43'0 0.0
2018-May-16 00:59N 56°00' E 012°43'0 0.0
2018-May-16 00:29N 56°00' E 012°43'0 0.0
2018-May-15 23:59N 56°00' E 012°43'0 0.0
2018-May-15 23:29N 56°00' E 012°43'0 0.0
2018-May-15 22:59N 56°00' E 012°43'0 0.0
2018-May-15 22:29N 56°00' E 012°43'0 0.0
2018-May-15 21:59N 56°00' E 012°43'0 0.0
2018-May-15 21:29N 56°00' E 012°43'0 0.0
2018-May-15 20:59N 56°00' E 012°43'0 0.0
2018-May-15 20:29N 56°00' E 012°43'0 0.0
2018-May-15 19:59N 56°00' E 012°43'0 0.0
2018-May-15 19:29N 56°00' E 012°43'0 0.0
2018-May-15 18:59N 56°00' E 012°43'0 0.0
2018-May-15 18:29N 56°00' E 012°43'0 0.0
2018-May-15 17:59N 56°00' E 012°43'0 0.0
2018-May-15 17:29N 56°00' E 012°43'0 0.0
2018-May-15 16:59N 56°00' E 012°43'0 0.0
2018-May-15 16:26N 56°00' E 012°43'0 0.0
2018-May-15 15:59N 56°00' E 012°43'0 0.0
2018-May-15 15:29N 56°00' E 012°43'0 0.0
2018-May-15 14:59N 56°00' E 012°43'0 0.0
2018-May-15 14:29N 56°00' E 012°43'0 0.0
2018-May-15 13:59N 56°00' E 012°43'0 0.0
2018-May-15 13:29N 56°00' E 012°43'0 0.0
2018-May-15 12:59N 56°00' E 012°43'0 0.0
2018-May-15 12:29N 56°00' E 012°43'0 0.0
2018-May-15 11:59N 56°00' E 012°43'0 0.0
2018-May-15 11:29N 56°00' E 012°43'0 0.0
2018-May-15 10:59N 56°00' E 012°43'0 0.0
2018-May-15 10:29N 56°00' E 012°43'0 0.0
2018-May-15 09:59N 56°00' E 012°43'0 0.0
2018-May-15 09:29N 56°00' E 012°43'0 0.0
2018-May-15 08:59N 56°00' E 012°43'0 0.0
2018-May-15 08:29N 56°00' E 012°43'0 0.0
2018-May-15 07:59N 56°00' E 012°43'0 0.0
2018-May-15 07:29N 56°00' E 012°43'0 0.0
2018-May-15 06:58N 56°00' E 012°43'0 0.0
2018-May-15 06:28N 56°00' E 012°43'0 0.0
2018-May-15 05:58N 56°00' E 012°43'0 0.0
2018-May-15 05:28N 56°00' E 012°43'0 0.0
2018-May-15 04:58N 56°00' E 012°43'1 2.8
2018-May-15 04:31N 55°59' E 012°41'5 9.5
2018-May-15 04:01N 56°04' E 012°38'5 9.1
2018-May-15 03:30N 56°07' E 012°32'13 8.4
2018-May-15 01:57N 56°14' E 012°13'5 8.1
2018-May-15 01:17N 56°17' E 012°05'19 8.3
2018-May-14 23:00N 56°35' E 011°55'10 9.4
2018-May-14 21:55N 56°46' E 011°51'4 9.5
2018-May-14 21:27N 56°50' E 011°48'5 9.6
2018-May-14 20:55N 56°54' E 011°45'4 9.8
2018-May-14 20:30N 56°58' E 011°42'5 9.3
2018-May-14 20:01N 57°02' E 011°39'5 9.0
2018-May-14 19:30N 57°07' E 011°37'5 9.3
2018-May-14 19:00N 57°11' E 011°34'4 8.9
2018-May-14 18:31N 57°15' E 011°31'5 9.1
2018-May-14 18:01N 57°20' E 011°29'510.4
2018-May-14 17:30N 57°25' E 011°25'510.4
2018-May-14 17:01N 57°29' E 011°20'510.0
2018-May-14 16:31N 57°32' E 011°14'5 9.7
2018-May-14 16:00N 57°36' E 011°07'5 9.9
2018-May-14 15:31N 57°39' E 011°00'5 9.8
2018-May-14 15:01N 57°43' E 010°54'5 9.4
2018-May-14 14:30N 57°46' E 010°47'4 8.6
2018-May-14 14:01N 57°47' E 010°39'105 9.7
2018-May-14 03:17N 56°59' E 007°47'310.4
2018-May-14 03:00N 56°58' E 007°42'510.1
2018-May-14 02:30N 56°55' E 007°34'510.1
2018-May-14 01:59N 56°52' E 007°26'510.3
2018-May-14 01:31N 56°50' E 007°19'5 9.7
2018-May-14 00:59N 56°47' E 007°11'211 9.2
2018-May-13 01:55N 53°32' E 004°48'410.1
2018-May-13 01:30N 53°29' E 004°45'5 9.9
2018-May-13 01:00N 53°24' E 004°41'5 9.4
2018-May-13 00:30N 53°20' E 004°38'5 9.3
2018-May-13 00:00N 53°16' E 004°35'5 9.3
2018-May-12 23:29N 53°11' E 004°31'4 9.0
2018-May-12 23:00N 53°08' E 004°28'4 8.8
2018-May-12 22:30N 53°04' E 004°25'5 8.9
2018-May-12 22:00N 52°59' E 004°21'4 8.8
2018-May-12 21:30N 52°55' E 004°18'4 8.7
2018-May-12 21:00N 52°52' E 004°15'6 8.6
2018-May-12 20:21N 52°47' E 004°10'3 8.6
2018-May-12 20:01N 52°45' E 004°07'17 8.9
2018-May-12 18:04N 52°32' E 003°47'1 8.4
2018-May-12 17:59N 52°32' E 003°46'4 8.6
2018-May-12 17:29N 52°29' E 003°41'4 8.7
2018-May-12 16:59N 52°25' E 003°36'4 9.2
2018-May-12 16:30N 52°22' E 003°31'5 9.5
2018-May-12 15:59N 52°19' E 003°26'5910.8
2018-May-12 10:32N 51°34' E 002°23'111.2
2018-May-12 10:29N 51°34' E 002°23'511.2
2018-May-12 10:00N 51°29' E 002°17'611.2
2018-May-12 09:30N 51°24' E 002°13'611.0
2018-May-12 09:00N 51°20' E 002°08'511.0
2018-May-12 08:31N 51°15' E 002°04'510.8
2018-May-12 08:01N 51°12' E 001°57'510.6
2018-May-12 07:31N 51°08' E 001°51'510.4
2018-May-12 07:00N 51°04' E 001°45'510.0
2018-May-12 06:30N 51°01' E 001°40'70 8.6
2018-May-11 22:21N 50°19' E 000°11'6 9.4
2018-May-11 21:43N 50°18' E 000°02'5 9.6
2018-May-11 21:11N 50°17' W 000°06'2 9.8
2018-May-11 20:57N 50°16' W 000°10'5 9.9
2018-May-11 20:26N 50°15' W 000°17'711.7
2018-May-11 19:49N 50°13' W 000°28'  

Dump ship's entire track history